sensor_id;sensor_type;location;lat;lon;timestamp;P1;durP1;ratioP1;P2;durP2;ratioP2
49223;SDS011;35050;51.316;5.994;2023-02-28T00:01:22;2.15;;;1.52;;
49223;SDS011;35050;51.316;5.994;2023-02-28T00:03:48;2.58;;;1.50;;
49223;SDS011;35050;51.316;5.994;2023-02-28T00:06:14;2.40;;;1.48;;
49223;SDS011;35050;51.316;5.994;2023-02-28T00:08:39;2.42;;;1.58;;
49223;SDS011;35050;51.316;5.994;2023-02-28T00:11:07;2.42;;;1.70;;
49223;SDS011;35050;51.316;5.994;2023-02-28T00:13:35;3.38;;;2.00;;
49223;SDS011;35050;51.316;5.994;2023-02-28T00:16:05;3.58;;;1.90;;
49223;SDS011;35050;51.316;5.994;2023-02-28T00:18:39;3.13;;;1.60;;
49223;SDS011;35050;51.316;5.994;2023-02-28T00:21:06;1.73;;;1.50;;
49223;SDS011;35050;51.316;5.994;2023-02-28T00:23:32;2.42;;;1.70;;
49223;SDS011;35050;51.316;5.994;2023-02-28T00:25:57;2.50;;;1.40;;
49223;SDS011;35050;51.316;5.994;2023-02-28T00:28:23;2.55;;;1.70;;
49223;SDS011;35050;51.316;5.994;2023-02-28T00:30:49;2.42;;;1.58;;
49223;SDS011;35050;51.316;5.994;2023-02-28T00:33:15;3.20;;;1.67;;
49223;SDS011;35050;51.316;5.994;2023-02-28T00:35:41;3.50;;;1.95;;
49223;SDS011;35050;51.316;5.994;2023-02-28T00:38:07;2.38;;;2.10;;
49223;SDS011;35050;51.316;5.994;2023-02-28T00:40:33;1.77;;;1.60;;
49223;SDS011;35050;51.316;5.994;2023-02-28T00:42:58;2.60;;;1.63;;
49223;SDS011;35050;51.316;5.994;2023-02-28T00:45:24;3.63;;;1.80;;
49223;SDS011;35050;51.316;5.994;2023-02-28T00:47:50;3.47;;;1.45;;
49223;SDS011;35050;51.316;5.994;2023-02-28T00:50:19;3.35;;;1.80;;
49223;SDS011;35050;51.316;5.994;2023-02-28T00:52:45;2.28;;;1.67;;
49223;SDS011;35050;51.316;5.994;2023-02-28T00:55:11;2.45;;;1.88;;
49223;SDS011;35050;51.316;5.994;2023-02-28T00:57:37;1.77;;;1.45;;
49223;SDS011;35050;51.316;5.994;2023-02-28T01:00:03;2.25;;;1.65;;
49223;SDS011;35050;51.316;5.994;2023-02-28T01:02:30;3.10;;;1.60;;
49223;SDS011;35050;51.316;5.994;2023-02-28T01:04:55;2.17;;;1.70;;
49223;SDS011;35050;51.316;5.994;2023-02-28T01:07:22;2.15;;;1.60;;
49223;SDS011;35050;51.316;5.994;2023-02-28T01:09:48;2.63;;;1.65;;
49223;SDS011;35050;51.316;5.994;2023-02-28T01:12:14;2.03;;;1.60;;
49223;SDS011;35050;51.316;5.994;2023-02-28T01:14:40;2.55;;;1.40;;
49223;SDS011;35050;51.316;5.994;2023-02-28T01:17:06;3.08;;;1.60;;
49223;SDS011;35050;51.316;5.994;2023-02-28T01:19:31;1.55;;;1.35;;
49223;SDS011;35050;51.316;5.994;2023-02-28T01:21:59;1.85;;;1.60;;
49223;SDS011;35050;51.316;5.994;2023-02-28T01:24:26;3.55;;;1.80;;
49223;SDS011;35050;51.316;5.994;2023-02-28T01:26:52;4.57;;;1.80;;
49223;SDS011;35050;51.316;5.994;2023-02-28T01:29:17;2.10;;;1.73;;
49223;SDS011;35050;51.316;5.994;2023-02-28T01:31:43;6.10;;;1.85;;
49223;SDS011;35050;51.316;5.994;2023-02-28T01:34:09;3.08;;;2.00;;
49223;SDS011;35050;51.316;5.994;2023-02-28T01:36:34;3.70;;;1.67;;
49223;SDS011;35050;51.316;5.994;2023-02-28T01:39:01;2.83;;;1.40;;
49223;SDS011;35050;51.316;5.994;2023-02-28T01:41:28;2.72;;;1.92;;
49223;SDS011;35050;51.316;5.994;2023-02-28T01:46:31;4.55;;;1.75;;
49223;SDS011;35050;51.316;5.994;2023-02-28T01:51:32;3.15;;;1.70;;
49223;SDS011;35050;51.316;5.994;2023-02-28T01:54:12;3.58;;;2.00;;
49223;SDS011;35050;51.316;5.994;2023-02-28T01:56:47;2.65;;;1.92;;
49223;SDS011;35050;51.316;5.994;2023-02-28T01:59:23;3.38;;;1.73;;
49223;SDS011;35050;51.316;5.994;2023-02-28T02:01:54;4.20;;;2.00;;
49223;SDS011;35050;51.316;5.994;2023-02-28T02:04:20;3.30;;;1.80;;
49223;SDS011;35050;51.316;5.994;2023-02-28T02:06:48;2.45;;;1.90;;
49223;SDS011;35050;51.316;5.994;2023-02-28T02:09:14;2.67;;;1.48;;
49223;SDS011;35050;51.316;5.994;2023-02-28T02:11:40;3.10;;;1.83;;
49223;SDS011;35050;51.316;5.994;2023-02-28T02:16:52;2.67;;;1.60;;
49223;SDS011;35050;51.316;5.994;2023-02-28T02:24:58;2.38;;;1.73;;
49223;SDS011;35050;51.316;5.994;2023-02-28T02:36:04;2.90;;;1.88;;
49223;SDS011;35050;51.316;5.994;2023-02-28T02:44:25;4.22;;;1.92;;
49223;SDS011;35050;51.316;5.994;2023-02-28T02:47:15;1.83;;;1.60;;
49223;SDS011;35050;51.316;5.994;2023-02-28T02:49:49;2.25;;;1.73;;
49223;SDS011;35050;51.316;5.994;2023-02-28T02:52:18;1.90;;;1.60;;
49223;SDS011;35050;51.316;5.994;2023-02-28T02:54:47;1.83;;;1.60;;
49223;SDS011;35050;51.316;5.994;2023-02-28T02:57:19;2.13;;;1.70;;
49223;SDS011;35050;51.316;5.994;2023-02-28T02:59:57;2.50;;;1.90;;
49223;SDS011;35050;51.316;5.994;2023-02-28T03:02:26;3.70;;;2.50;;
49223;SDS011;35050;51.316;5.994;2023-02-28T03:04:59;2.22;;;1.67;;
49223;SDS011;35050;51.316;5.994;2023-02-28T03:07:28;2.63;;;1.63;;
49223;SDS011;35050;51.316;5.994;2023-02-28T03:09:54;2.80;;;1.67;;
49223;SDS011;35050;51.316;5.994;2023-02-28T03:12:22;2.58;;;1.90;;
49223;SDS011;35050;51.316;5.994;2023-02-28T03:17:55;2.65;;;1.98;;
49223;SDS011;35050;51.316;5.994;2023-02-28T03:20:41;5.75;;;1.80;;
49223;SDS011;35050;51.316;5.994;2023-02-28T03:26:03;3.03;;;1.67;;
49223;SDS011;35050;51.316;5.994;2023-02-28T03:28:38;2.20;;;1.88;;
49223;SDS011;35050;51.316;5.994;2023-02-28T03:31:17;2.58;;;1.90;;
49223;SDS011;35050;51.316;5.994;2023-02-28T03:33:50;2.72;;;1.80;;
49223;SDS011;35050;51.316;5.994;2023-02-28T03:36:25;2.72;;;1.85;;
49223;SDS011;35050;51.316;5.994;2023-02-28T03:38:58;2.70;;;1.73;;
49223;SDS011;35050;51.316;5.994;2023-02-28T03:41:47;2.15;;;1.77;;
49223;SDS011;35050;51.316;5.994;2023-02-28T03:44:41;2.42;;;1.70;;
49223;SDS011;35050;51.316;5.994;2023-02-28T03:47:25;1.95;;;1.50;;
49223;SDS011;35050;51.316;5.994;2023-02-28T03:49:57;2.45;;;1.67;;
49223;SDS011;35050;51.316;5.994;2023-02-28T03:52:29;3.37;;;1.73;;
49223;SDS011;35050;51.316;5.994;2023-02-28T03:54:59;3.92;;;1.85;;
49223;SDS011;35050;51.316;5.994;2023-02-28T04:00:25;2.83;;;1.90;;
49223;SDS011;35050;51.316;5.994;2023-02-28T04:02:55;2.83;;;1.85;;
49223;SDS011;35050;51.316;5.994;2023-02-28T04:05:21;3.50;;;2.25;;
49223;SDS011;35050;51.316;5.994;2023-02-28T04:07:47;2.95;;;1.80;;
49223;SDS011;35050;51.316;5.994;2023-02-28T04:10:13;2.28;;;1.95;;
49223;SDS011;35050;51.316;5.994;2023-02-28T04:12:40;3.33;;;2.25;;
49223;SDS011;35050;51.316;5.994;2023-02-28T04:15:06;3.55;;;1.92;;
49223;SDS011;35050;51.316;5.994;2023-02-28T04:17:32;2.45;;;1.80;;
49223;SDS011;35050;51.316;5.994;2023-02-28T04:19:58;2.78;;;2.05;;
49223;SDS011;35050;51.316;5.994;2023-02-28T04:22:24;4.47;;;1.95;;
49223;SDS011;35050;51.316;5.994;2023-02-28T04:24:52;3.47;;;2.00;;
49223;SDS011;35050;51.316;5.994;2023-02-28T04:27:19;3.38;;;2.20;;
49223;SDS011;35050;51.316;5.994;2023-02-28T04:29:45;4.20;;;2.00;;
49223;SDS011;35050;51.316;5.994;2023-02-28T04:32:11;2.65;;;2.05;;
49223;SDS011;35050;51.316;5.994;2023-02-28T04:34:37;3.25;;;2.00;;
49223;SDS011;35050;51.316;5.994;2023-02-28T04:37:03;4.32;;;2.00;;
49223;SDS011;35050;51.316;5.994;2023-02-28T04:39:30;3.33;;;2.03;;
49223;SDS011;35050;51.316;5.994;2023-02-28T04:42:00;2.13;;;1.67;;
49223;SDS011;35050;51.316;5.994;2023-02-28T04:44:25;3.13;;;1.90;;
49223;SDS011;35050;51.316;5.994;2023-02-28T04:46:51;2.40;;;1.90;;
49223;SDS011;35050;51.316;5.994;2023-02-28T04:49:16;2.92;;;1.83;;
49223;SDS011;35050;51.316;5.994;2023-02-28T04:51:42;1.52;;;1.42;;
49223;SDS011;35050;51.316;5.994;2023-02-28T04:54:08;2.95;;;1.92;;
49223;SDS011;35050;51.316;5.994;2023-02-28T04:56:33;3.13;;;1.80;;
49223;SDS011;35050;51.316;5.994;2023-02-28T04:58:59;4.65;;;2.40;;
49223;SDS011;35050;51.316;5.994;2023-02-28T05:01:26;2.53;;;1.90;;
49223;SDS011;35050;51.316;5.994;2023-02-28T05:03:55;2.10;;;1.52;;
49223;SDS011;35050;51.316;5.994;2023-02-28T05:06:23;4.47;;;2.28;;
49223;SDS011;35050;51.316;5.994;2023-02-28T05:08:51;3.20;;;2.03;;
49223;SDS011;35050;51.316;5.994;2023-02-28T05:11:20;4.03;;;2.65;;
49223;SDS011;35050;51.316;5.994;2023-02-28T05:14:05;4.55;;;1.92;;
49223;SDS011;35050;51.316;5.994;2023-02-28T05:16:35;3.08;;;2.05;;
49223;SDS011;35050;51.316;5.994;2023-02-28T05:19:01;3.90;;;2.13;;
49223;SDS011;35050;51.316;5.994;2023-02-28T05:24:18;2.58;;;1.70;;
49223;SDS011;35050;51.316;5.994;2023-02-28T05:26:48;5.50;;;2.20;;
49223;SDS011;35050;51.316;5.994;2023-02-28T05:29:16;2.55;;;1.90;;
49223;SDS011;35050;51.316;5.994;2023-02-28T05:31:42;4.10;;;2.47;;
49223;SDS011;35050;51.316;5.994;2023-02-28T05:34:07;2.80;;;2.00;;
49223;SDS011;35050;51.316;5.994;2023-02-28T05:36:36;5.53;;;2.20;;
49223;SDS011;35050;51.316;5.994;2023-02-28T05:39:02;3.58;;;1.98;;
49223;SDS011;35050;51.316;5.994;2023-02-28T05:41:29;2.45;;;1.75;;
49223;SDS011;35050;51.316;5.994;2023-02-28T05:43:54;3.60;;;2.25;;
49223;SDS011;35050;51.316;5.994;2023-02-28T05:46:22;2.78;;;2.20;;
49223;SDS011;35050;51.316;5.994;2023-02-28T05:48:47;3.58;;;2.40;;
49223;SDS011;35050;51.316;5.994;2023-02-28T05:51:13;2.30;;;1.98;;
49223;SDS011;35050;51.316;5.994;2023-02-28T05:53:39;2.50;;;2.05;;
49223;SDS011;35050;51.316;5.994;2023-02-28T05:56:05;3.65;;;2.00;;
49223;SDS011;35050;51.316;5.994;2023-02-28T05:58:31;3.70;;;2.75;;
49223;SDS011;35050;51.316;5.994;2023-02-28T06:00:57;4.63;;;3.00;;
49223;SDS011;35050;51.316;5.994;2023-02-28T06:03:23;4.55;;;2.60;;
49223;SDS011;35050;51.316;5.994;2023-02-28T06:05:49;3.28;;;2.10;;
49223;SDS011;35050;51.316;5.994;2023-02-28T06:08:15;3.47;;;2.40;;
49223;SDS011;35050;51.316;5.994;2023-02-28T06:10:41;3.35;;;2.40;;
49223;SDS011;35050;51.316;5.994;2023-02-28T06:13:07;3.92;;;2.72;;
49223;SDS011;35050;51.316;5.994;2023-02-28T06:15:33;2.58;;;1.98;;
49223;SDS011;35050;51.316;5.994;2023-02-28T06:17:58;2.95;;;2.13;;
49223;SDS011;35050;51.316;5.994;2023-02-28T06:20:25;2.95;;;1.55;;
49223;SDS011;35050;51.316;5.994;2023-02-28T06:22:54;3.05;;;2.00;;
49223;SDS011;35050;51.316;5.994;2023-02-28T06:25:26;2.60;;;1.92;;
49223;SDS011;35050;51.316;5.994;2023-02-28T06:27:53;2.95;;;1.80;;
49223;SDS011;35050;51.316;5.994;2023-02-28T06:30:19;2.90;;;1.95;;
49223;SDS011;35050;51.316;5.994;2023-02-28T06:32:48;2.90;;;1.92;;
49223;SDS011;35050;51.316;5.994;2023-02-28T06:35:14;3.70;;;2.30;;
49223;SDS011;35050;51.316;5.994;2023-02-28T06:37:40;4.57;;;1.88;;
49223;SDS011;35050;51.316;5.994;2023-02-28T06:40:07;2.80;;;1.90;;
49223;SDS011;35050;51.316;5.994;2023-02-28T06:42:33;3.40;;;1.92;;
49223;SDS011;35050;51.316;5.994;2023-02-28T06:45:00;3.75;;;2.10;;
49223;SDS011;35050;51.316;5.994;2023-02-28T06:47:28;3.70;;;2.20;;
49223;SDS011;35050;51.316;5.994;2023-02-28T06:49:55;2.83;;;2.10;;
49223;SDS011;35050;51.316;5.994;2023-02-28T06:52:21;2.53;;;1.90;;
49223;SDS011;35050;51.316;5.994;2023-02-28T06:54:47;4.75;;;2.30;;
49223;SDS011;35050;51.316;5.994;2023-02-28T06:57:24;2.35;;;1.77;;
49223;SDS011;35050;51.316;5.994;2023-02-28T06:59:55;2.97;;;2.10;;
49223;SDS011;35050;51.316;5.994;2023-02-28T07:02:24;4.75;;;2.20;;
49223;SDS011;35050;51.316;5.994;2023-02-28T07:04:51;1.95;;;1.63;;
49223;SDS011;35050;51.316;5.994;2023-02-28T07:07:16;2.50;;;1.77;;
49223;SDS011;35050;51.316;5.994;2023-02-28T07:09:42;5.30;;;2.15;;
49223;SDS011;35050;51.316;5.994;2023-02-28T07:12:07;3.88;;;1.90;;
49223;SDS011;35050;51.316;5.994;2023-02-28T07:14:33;3.28;;;2.00;;
49223;SDS011;35050;51.316;5.994;2023-02-28T07:17:01;2.72;;;2.03;;
49223;SDS011;35050;51.316;5.994;2023-02-28T07:19:26;2.22;;;1.88;;
49223;SDS011;35050;51.316;5.994;2023-02-28T07:21:53;2.35;;;1.50;;
49223;SDS011;35050;51.316;5.994;2023-02-28T07:24:18;4.03;;;2.00;;
49223;SDS011;35050;51.316;5.994;2023-02-28T07:26:44;3.33;;;2.20;;
49223;SDS011;35050;51.316;5.994;2023-02-28T07:29:10;3.53;;;2.03;;
49223;SDS011;35050;51.316;5.994;2023-02-28T07:31:36;2.47;;;1.83;;
49223;SDS011;35050;51.316;5.994;2023-02-28T07:34:03;1.95;;;1.40;;
49223;SDS011;35050;51.316;5.994;2023-02-28T07:36:28;1.65;;;1.50;;
49223;SDS011;35050;51.316;5.994;2023-02-28T07:38:54;3.00;;;1.80;;
49223;SDS011;35050;51.316;5.994;2023-02-28T07:41:21;3.10;;;1.77;;
49223;SDS011;35050;51.316;5.994;2023-02-28T07:43:48;4.78;;;2.10;;
49223;SDS011;35050;51.316;5.994;2023-02-28T07:46:15;2.65;;;2.00;;
49223;SDS011;35050;51.316;5.994;2023-02-28T07:48:42;2.97;;;2.00;;
49223;SDS011;35050;51.316;5.994;2023-02-28T07:51:08;3.90;;;1.80;;
49223;SDS011;35050;51.316;5.994;2023-02-28T07:53:34;2.45;;;1.75;;
49223;SDS011;35050;51.316;5.994;2023-02-28T07:56:00;2.80;;;1.88;;
49223;SDS011;35050;51.316;5.994;2023-02-28T07:58:28;2.35;;;1.73;;
49223;SDS011;35050;51.316;5.994;2023-02-28T08:00:56;3.35;;;1.85;;
49223;SDS011;35050;51.316;5.994;2023-02-28T08:03:23;1.70;;;1.50;;
49223;SDS011;35050;51.316;5.994;2023-02-28T08:05:48;2.72;;;1.73;;
49223;SDS011;35050;51.316;5.994;2023-02-28T08:08:15;1.80;;;1.60;;
49223;SDS011;35050;51.316;5.994;2023-02-28T08:10:41;2.92;;;1.73;;
49223;SDS011;35050;51.316;5.994;2023-02-28T08:13:07;2.60;;;1.67;;
49223;SDS011;35050;51.316;5.994;2023-02-28T08:15:32;2.88;;;1.70;;
49223;SDS011;35050;51.316;5.994;2023-02-28T08:17:58;5.15;;;1.90;;
49223;SDS011;35050;51.316;5.994;2023-02-28T08:20:24;2.72;;;1.80;;
49223;SDS011;35050;51.316;5.994;2023-02-28T08:22:50;3.72;;;1.90;;
49223;SDS011;35050;51.316;5.994;2023-02-28T08:25:16;2.47;;;1.75;;
49223;SDS011;35050;51.316;5.994;2023-02-28T08:27:42;3.42;;;2.10;;
49223;SDS011;35050;51.316;5.994;2023-02-28T08:30:10;3.53;;;2.10;;
49223;SDS011;35050;51.316;5.994;2023-02-28T08:32:37;3.53;;;2.10;;
49223;SDS011;35050;51.316;5.994;2023-02-28T08:35:02;5.75;;;2.42;;
49223;SDS011;35050;51.316;5.994;2023-02-28T08:37:28;4.18;;;2.33;;
49223;SDS011;35050;51.316;5.994;2023-02-28T08:39:54;4.90;;;2.10;;
49223;SDS011;35050;51.316;5.994;2023-02-28T08:42:20;3.90;;;2.40;;
49223;SDS011;35050;51.316;5.994;2023-02-28T08:44:45;3.00;;;2.03;;
49223;SDS011;35050;51.316;5.994;2023-02-28T08:47:11;4.43;;;2.22;;
49223;SDS011;35050;51.316;5.994;2023-02-28T08:49:37;4.18;;;2.08;;
49223;SDS011;35050;51.316;5.994;2023-02-28T08:52:03;5.22;;;1.90;;
49223;SDS011;35050;51.316;5.994;2023-02-28T08:54:29;3.65;;;2.25;;
49223;SDS011;35050;51.316;5.994;2023-02-28T08:56:56;4.30;;;2.20;;
49223;SDS011;35050;51.316;5.994;2023-02-28T08:59:22;3.83;;;2.00;;
49223;SDS011;35050;51.316;5.994;2023-02-28T09:01:47;2.38;;;1.65;;
49223;SDS011;35050;51.316;5.994;2023-02-28T09:04:13;4.28;;;2.00;;
49223;SDS011;35050;51.316;5.994;2023-02-28T09:06:39;4.97;;;1.90;;
49223;SDS011;35050;51.316;5.994;2023-02-28T09:09:05;2.45;;;1.67;;
49223;SDS011;35050;51.316;5.994;2023-02-28T09:11:32;2.42;;;1.40;;
49223;SDS011;35050;51.316;5.994;2023-02-28T09:13:59;2.75;;;1.67;;
49223;SDS011;35050;51.316;5.994;2023-02-28T09:16:25;2.80;;;1.70;;
49223;SDS011;35050;51.316;5.994;2023-02-28T09:18:51;3.00;;;1.45;;
49223;SDS011;35050;51.316;5.994;2023-02-28T09:21:17;1.83;;;1.58;;
49223;SDS011;35050;51.316;5.994;2023-02-28T09:23:45;2.05;;;1.45;;
49223;SDS011;35050;51.316;5.994;2023-02-28T09:26:13;4.07;;;2.90;;
49223;SDS011;35050;51.316;5.994;2023-02-28T09:28:41;4.60;;;3.00;;
49223;SDS011;35050;51.316;5.994;2023-02-28T09:31:10;3.38;;;2.30;;
49223;SDS011;35050;51.316;5.994;2023-02-28T09:33:39;4.53;;;2.03;;
49223;SDS011;35050;51.316;5.994;2023-02-28T09:36:06;2.30;;;1.80;;
49223;SDS011;35050;51.316;5.994;2023-02-28T09:38:31;2.75;;;1.55;;
49223;SDS011;35050;51.316;5.994;2023-02-28T09:41:01;2.05;;;1.70;;
49223;SDS011;35050;51.316;5.994;2023-02-28T09:43:31;2.10;;;1.60;;
49223;SDS011;35050;51.316;5.994;2023-02-28T09:48:39;1.98;;;1.40;;
49223;SDS011;35050;51.316;5.994;2023-02-28T09:56:20;3.53;;;1.50;;
49223;SDS011;35050;51.316;5.994;2023-02-28T09:59:10;2.28;;;1.30;;
49223;SDS011;35050;51.316;5.994;2023-02-28T10:01:54;3.17;;;1.50;;
49223;SDS011;35050;51.316;5.994;2023-02-28T10:09:55;3.28;;;1.70;;
49223;SDS011;35050;51.316;5.994;2023-02-28T10:12:25;4.15;;;2.08;;
49223;SDS011;35050;51.316;5.994;2023-02-28T10:14:52;2.72;;;1.90;;
49223;SDS011;35050;51.316;5.994;2023-02-28T10:17:30;3.20;;;1.75;;
49223;SDS011;35050;51.316;5.994;2023-02-28T10:20:07;2.35;;;1.55;;
49223;SDS011;35050;51.316;5.994;2023-02-28T10:23:21;3.33;;;1.50;;
49223;SDS011;35050;51.316;5.994;2023-02-28T10:25:37;2.58;;;1.83;;
49223;SDS011;35050;51.316;5.994;2023-02-28T10:28:16;2.75;;;1.65;;
49223;SDS011;35050;51.316;5.994;2023-02-28T10:30:46;2.08;;;1.40;;
49223;SDS011;35050;51.316;5.994;2023-02-28T10:33:24;2.28;;;1.50;;
49223;SDS011;35050;51.316;5.994;2023-02-28T10:35:59;2.97;;;1.50;;
49223;SDS011;35050;51.316;5.994;2023-02-28T10:38:32;2.33;;;1.30;;
49223;SDS011;35050;51.316;5.994;2023-02-28T10:41:03;2.22;;;1.67;;
49223;SDS011;35050;51.316;5.994;2023-02-28T10:43:29;5.18;;;2.17;;
49223;SDS011;35050;51.316;5.994;2023-02-28T10:45:56;3.15;;;1.50;;
49223;SDS011;35050;51.316;5.994;2023-02-28T10:48:38;3.25;;;1.92;;
49223;SDS011;35050;51.316;5.994;2023-02-28T10:51:12;2.55;;;1.25;;
49223;SDS011;35050;51.316;5.994;2023-02-28T10:53:48;2.67;;;1.50;;
49223;SDS011;35050;51.316;5.994;2023-02-28T10:56:21;2.28;;;1.40;;
49223;SDS011;35050;51.316;5.994;2023-02-28T11:09:31;2.95;;;1.60;;
49223;SDS011;35050;51.316;5.994;2023-02-28T11:12:00;4.38;;;1.42;;
49223;SDS011;35050;51.316;5.994;2023-02-28T11:14:29;3.35;;;1.58;;
49223;SDS011;35050;51.316;5.994;2023-02-28T11:17:02;2.22;;;1.58;;
49223;SDS011;35050;51.316;5.994;2023-02-28T11:19:54;1.83;;;1.45;;
49223;SDS011;35050;51.316;5.994;2023-02-28T11:22:24;3.10;;;1.92;;
49223;SDS011;35050;51.316;5.994;2023-02-28T11:24:54;2.55;;;1.42;;
49223;SDS011;35050;51.316;5.994;2023-02-28T11:29:58;2.92;;;1.95;;
49223;SDS011;35050;51.316;5.994;2023-02-28T11:32:25;4.28;;;2.40;;
49223;SDS011;35050;51.316;5.994;2023-02-28T11:37:35;3.97;;;2.30;;
49223;SDS011;35050;51.316;5.994;2023-02-28T11:40:01;4.53;;;1.83;;
49223;SDS011;35050;51.316;5.994;2023-02-28T11:51:28;2.88;;;1.77;;
49223;SDS011;35050;51.316;5.994;2023-02-28T12:04:44;2.33;;;1.42;;
49223;SDS011;35050;51.316;5.994;2023-02-28T12:07:40;2.80;;;1.42;;
49223;SDS011;35050;51.316;5.994;2023-02-28T12:12:47;1.73;;;1.30;;
49223;SDS011;35050;51.316;5.994;2023-02-28T12:28:27;2.47;;;1.50;;
49223;SDS011;35050;51.316;5.994;2023-02-28T12:30:59;2.30;;;1.35;;
49223;SDS011;35050;51.316;5.994;2023-02-28T12:34:04;1.63;;;1.50;;
49223;SDS011;35050;51.316;5.994;2023-02-28T12:36:26;2.78;;;1.63;;
49223;SDS011;35050;51.316;5.994;2023-02-28T12:38:59;7.03;;;3.67;;
49223;SDS011;35050;51.316;5.994;2023-02-28T12:41:41;4.38;;;2.72;;
49223;SDS011;35050;51.316;5.994;2023-02-28T12:46:49;4.65;;;2.20;;
49223;SDS011;35050;51.316;5.994;2023-02-28T12:49:21;2.25;;;2.05;;
49223;SDS011;35050;51.316;5.994;2023-02-28T12:52:03;2.85;;;2.08;;
49223;SDS011;35050;51.316;5.994;2023-02-28T13:00:32;1.98;;;1.50;;
49223;SDS011;35050;51.316;5.994;2023-02-28T13:03:11;3.78;;;1.40;;
49223;SDS011;35050;51.316;5.994;2023-02-28T13:11:28;2.13;;;1.50;;
49223;SDS011;35050;51.316;5.994;2023-02-28T13:14:24;2.90;;;1.63;;
49223;SDS011;35050;51.316;5.994;2023-02-28T13:19:34;4.45;;;1.30;;
49223;SDS011;35050;51.316;5.994;2023-02-28T13:22:02;1.70;;;1.23;;
49223;SDS011;35050;51.316;5.994;2023-02-28T13:24:40;1.80;;;1.15;;
49223;SDS011;35050;51.316;5.994;2023-02-28T13:34:31;1.83;;;1.40;;
49223;SDS011;35050;51.316;5.994;2023-02-28T13:39:54;1.60;;;1.30;;
49223;SDS011;35050;51.316;5.994;2023-02-28T13:42:48;2.17;;;1.60;;
49223;SDS011;35050;51.316;5.994;2023-02-28T13:45:25;3.05;;;1.50;;
49223;SDS011;35050;51.316;5.994;2023-02-28T13:47:59;3.05;;;1.60;;
49223;SDS011;35050;51.316;5.994;2023-02-28T13:50:31;1.58;;;1.27;;
49223;SDS011;35050;51.316;5.994;2023-02-28T13:58:09;3.30;;;1.38;;
49223;SDS011;35050;51.316;5.994;2023-02-28T14:00:59;1.92;;;1.08;;
49223;SDS011;35050;51.316;5.994;2023-02-28T14:06:22;2.08;;;1.45;;
49223;SDS011;35050;51.316;5.994;2023-02-28T14:09:05;4.50;;;1.67;;
49223;SDS011;35050;51.316;5.994;2023-02-28T14:11:41;2.63;;;1.70;;
49223;SDS011;35050;51.316;5.994;2023-02-28T14:14:09;2.50;;;1.80;;
49223;SDS011;35050;51.316;5.994;2023-02-28T14:16:55;1.52;;;1.15;;
49223;SDS011;35050;51.316;5.994;2023-02-28T14:19:26;3.88;;;1.40;;
49223;SDS011;35050;51.316;5.994;2023-02-28T14:25:18;2.10;;;1.17;;
49223;SDS011;35050;51.316;5.994;2023-02-28T14:39:15;2.80;;;1.70;;
49223;SDS011;35050;51.316;5.994;2023-02-28T14:41:44;1.23;;;1.10;;
49223;SDS011;35050;51.316;5.994;2023-02-28T14:46:43;1.92;;;1.10;;
49223;SDS011;35050;51.316;5.994;2023-02-28T14:49:17;1.23;;;1.10;;
49223;SDS011;35050;51.316;5.994;2023-02-28T14:51:46;1.55;;;1.40;;
49223;SDS011;35050;51.316;5.994;2023-02-28T14:54:26;2.30;;;1.60;;
49223;SDS011;35050;51.316;5.994;2023-02-28T14:56:51;2.65;;;1.40;;
49223;SDS011;35050;51.316;5.994;2023-02-28T14:59:38;2.10;;;1.50;;
49223;SDS011;35050;51.316;5.994;2023-02-28T15:02:14;2.45;;;1.70;;
49223;SDS011;35050;51.316;5.994;2023-02-28T15:04:55;2.35;;;1.35;;
49223;SDS011;35050;51.316;5.994;2023-02-28T15:07:25;4.40;;;1.35;;
49223;SDS011;35050;51.316;5.994;2023-02-28T15:12:36;2.55;;;1.40;;
49223;SDS011;35050;51.316;5.994;2023-02-28T15:15:02;1.67;;;1.40;;
49223;SDS011;35050;51.316;5.994;2023-02-28T15:17:28;2.33;;;1.70;;
49223;SDS011;35050;51.316;5.994;2023-02-28T15:19:54;2.17;;;1.50;;
49223;SDS011;35050;51.316;5.994;2023-02-28T15:22:24;1.60;;;1.30;;
49223;SDS011;35050;51.316;5.994;2023-02-28T15:24:56;2.08;;;1.08;;
49223;SDS011;35050;51.316;5.994;2023-02-28T15:27:29;2.15;;;1.60;;
49223;SDS011;35050;51.316;5.994;2023-02-28T15:30:07;1.75;;;1.35;;
49223;SDS011;35050;51.316;5.994;2023-02-28T15:32:38;2.47;;;1.30;;
49223;SDS011;35050;51.316;5.994;2023-02-28T15:35:47;1.98;;;1.50;;
49223;SDS011;35050;51.316;5.994;2023-02-28T15:38:28;1.70;;;1.40;;
49223;SDS011;35050;51.316;5.994;2023-02-28T15:40:55;2.45;;;1.50;;
49223;SDS011;35050;51.316;5.994;2023-02-28T15:43:29;2.08;;;1.42;;
49223;SDS011;35050;51.316;5.994;2023-02-28T15:46:10;1.55;;;1.25;;
49223;SDS011;35050;51.316;5.994;2023-02-28T15:48:50;2.27;;;1.63;;
49223;SDS011;35050;51.316;5.994;2023-02-28T15:51:19;1.77;;;1.33;;
49223;SDS011;35050;51.316;5.994;2023-02-28T15:53:49;1.70;;;1.30;;
49223;SDS011;35050;51.316;5.994;2023-02-28T15:56:27;1.65;;;1.38;;
49223;SDS011;35050;51.316;5.994;2023-02-28T15:58:59;2.45;;;1.42;;
49223;SDS011;35050;51.316;5.994;2023-02-28T16:01:29;2.57;;;1.80;;
49223;SDS011;35050;51.316;5.994;2023-02-28T16:04:02;3.33;;;2.03;;
49223;SDS011;35050;51.316;5.994;2023-02-28T16:06:38;3.38;;;2.28;;
49223;SDS011;35050;51.316;5.994;2023-02-28T16:09:14;3.60;;;1.92;;
49223;SDS011;35050;51.316;5.994;2023-02-28T16:11:42;2.38;;;1.80;;
49223;SDS011;35050;51.316;5.994;2023-02-28T16:14:15;4.32;;;2.35;;
49223;SDS011;35050;51.316;5.994;2023-02-28T16:16:48;3.75;;;2.25;;
49223;SDS011;35050;51.316;5.994;2023-02-28T16:19:16;2.97;;;2.03;;
49223;SDS011;35050;51.316;5.994;2023-02-28T16:21:42;2.55;;;2.20;;
49223;SDS011;35050;51.316;5.994;2023-02-28T16:24:08;2.22;;;2.03;;
49223;SDS011;35050;51.316;5.994;2023-02-28T16:26:34;5.43;;;1.90;;
49223;SDS011;35050;51.316;5.994;2023-02-28T16:29:02;2.20;;;1.60;;
49223;SDS011;35050;51.316;5.994;2023-02-28T16:31:28;1.75;;;1.48;;
49223;SDS011;35050;51.316;5.994;2023-02-28T16:33:55;4.18;;;2.70;;
49223;SDS011;35050;51.316;5.994;2023-02-28T16:36:22;4.55;;;2.75;;
49223;SDS011;35050;51.316;5.994;2023-02-28T16:38:50;2.88;;;2.20;;
49223;SDS011;35050;51.316;5.994;2023-02-28T16:41:20;2.70;;;1.90;;
49223;SDS011;35050;51.316;5.994;2023-02-28T16:43:49;3.03;;;1.83;;
49223;SDS011;35050;51.316;5.994;2023-02-28T16:46:16;2.13;;;1.73;;
49223;SDS011;35050;51.316;5.994;2023-02-28T16:48:43;2.78;;;2.10;;
49223;SDS011;35050;51.316;5.994;2023-02-28T16:51:13;3.20;;;1.65;;
49223;SDS011;35050;51.316;5.994;2023-02-28T16:53:40;2.30;;;1.60;;
49223;SDS011;35050;51.316;5.994;2023-02-28T16:56:06;2.08;;;1.60;;
49223;SDS011;35050;51.316;5.994;2023-02-28T16:58:42;2.58;;;2.00;;
49223;SDS011;35050;51.316;5.994;2023-02-28T17:01:08;2.47;;;1.80;;
49223;SDS011;35050;51.316;5.994;2023-02-28T17:03:34;1.63;;;1.48;;
49223;SDS011;35050;51.316;5.994;2023-02-28T17:06:01;1.80;;;1.48;;
49223;SDS011;35050;51.316;5.994;2023-02-28T17:08:27;1.50;;;1.30;;
49223;SDS011;35050;51.316;5.994;2023-02-28T17:10:54;2.33;;;1.52;;
49223;SDS011;35050;51.316;5.994;2023-02-28T17:13:20;4.32;;;1.30;;
49223;SDS011;35050;51.316;5.994;2023-02-28T17:15:46;1.27;;;1.17;;
49223;SDS011;35050;51.316;5.994;2023-02-28T17:18:16;1.60;;;1.38;;
49223;SDS011;35050;51.316;5.994;2023-02-28T17:20:46;1.85;;;1.10;;
49223;SDS011;35050;51.316;5.994;2023-02-28T17:23:12;2.35;;;1.38;;
49223;SDS011;35050;51.316;5.994;2023-02-28T17:25:38;2.15;;;1.33;;
49223;SDS011;35050;51.316;5.994;2023-02-28T17:28:04;1.75;;;1.45;;
49223;SDS011;35050;51.316;5.994;2023-02-28T17:30:31;1.88;;;1.25;;
49223;SDS011;35050;51.316;5.994;2023-02-28T17:32:58;1.30;;;1.20;;
49223;SDS011;35050;51.316;5.994;2023-02-28T17:35:25;1.77;;;1.35;;
49223;SDS011;35050;51.316;5.994;2023-02-28T17:37:51;1.70;;;1.60;;
49223;SDS011;35050;51.316;5.994;2023-02-28T17:40:21;3.38;;;1.40;;
49223;SDS011;35050;51.316;5.994;2023-02-28T17:42:48;1.75;;;1.50;;